Time;durP1;ratioP1;P1;durP2;ratioP2;P2;SDS_P1;SDS_P2;PMS_P1;PMS_P2;Temp;Humidity;BMP_temperature;BMP_pressure;BME280_temperature;BME280_humidity;BME280_pressure;Samples;Min_cycle;Max_cycle;Signal;HPM_P1;HPM_P2
2022/07/01 00:02:16;;;;;;;6.28;4.22;;;23.50;99.90;;;;;;5033954;28;20052;-80
2022/07/01 00:04:42;;;;;;;6.50;3.85;;;23.50;99.90;;;;;;5032355;28;20029;-78
2022/07/01 00:07:07;;;;;;;7.82;3.00;;;23.50;99.90;;;;;;5032893;28;20029;-78
2022/07/01 00:09:34;;;;;;;4.60;2.45;;;23.50;99.90;;;;;;5033408;28;20052;-82
2022/07/01 00:12:00;;;;;;;6.95;2.30;;;23.30;99.90;;;;;;5018696;28;20492;-79
2022/07/01 00:14:25;;;;;;;8.05;2.42;;;23.20;99.90;;;;;;5032418;28;20033;-79
2022/07/01 00:16:51;;;;;;;6.93;2.60;;;23.00;99.90;;;;;;5034816;28;20091;-78
2022/07/01 00:19:17;;;;;;;5.25;2.40;;;22.80;99.90;;;;;;5029890;28;20032;-78
2022/07/01 00:21:43;;;;;;;6.00;2.53;;;22.60;99.90;;;;;;5029814;28;20021;-78
2022/07/01 00:24:09;;;;;;;6.57;2.90;;;22.50;99.90;;;;;;5033100;28;20051;-78
2022/07/01 00:26:35;;;;;;;6.50;2.88;;;22.30;99.90;;;;;;5032281;28;20033;-77
2022/07/01 00:29:00;;;;;;;7.57;2.78;;;22.20;99.90;;;;;;5033676;28;20096;-78
2022/07/01 00:31:27;;;;;;;7.53;2.80;;;22.10;99.90;;;;;;5013232;28;20036;-78
2022/07/01 00:33:54;;;;;;;8.07;3.25;;;21.90;99.90;;;;;;5018425;28;20024;-78
2022/07/01 00:36:29;;;;;;;10.63;3.45;;;21.70;99.90;;;;;;5040670;28;20017;-78
2022/07/01 00:38:55;;;;;;;11.60;3.17;;;21.60;99.90;;;;;;5043598;28;20102;-82
2022/07/01 00:41:21;;;;;;;12.75;4.65;;;21.40;99.90;;;;;;5037651;28;20056;-79
2022/07/01 00:43:47;;;;;;;8.55;3.65;;;21.30;99.90;;;;;;5041401;28;20029;-78
2022/07/01 00:46:13;;;;;;;10.43;4.00;;;21.20;99.90;;;;;;5042321;28;20100;-79
2022/07/01 00:48:40;;;;;;;12.00;4.65;;;21.00;99.90;;;;;;5045220;28;20068;-77
2022/07/01 00:51:07;;;;;;;13.40;5.40;;;20.80;99.90;;;;;;5037215;28;20058;-80
2022/07/01 00:53:32;;;;;;;11.25;5.50;;;20.80;99.90;;;;;;5034977;28;20103;-78
2022/07/01 00:55:58;;;;;;;8.15;4.80;;;20.60;99.90;;;;;;5047976;28;20626;-78
2022/07/01 00:58:28;;;;;;;12.75;4.65;;;20.60;99.90;;;;;;5038342;28;20025;-78
2022/07/01 01:00:55;;;;;;;15.02;4.68;;;20.40;99.90;;;;;;5038171;28;20041;-78
2022/07/01 01:03:21;;;;;;;15.82;5.68;;;20.30;99.90;;;;;;5043060;28;20576;-80
2022/07/01 01:05:46;;;;;;;12.35;5.40;;;20.30;99.90;;;;;;5039313;28;20109;-79
2022/07/01 01:08:12;;;;;;;11.68;5.88;;;20.20;99.90;;;;;;5039166;28;20394;-80
2022/07/01 01:10:38;;;;;;;12.80;5.90;;;20.20;99.90;;;;;;5031898;28;20124;-78
2022/07/01 01:13:04;;;;;;;11.00;5.82;;;20.10;99.90;;;;;;5020707;28;20041;-77
2022/07/01 01:15:31;;;;;;;9.90;5.93;;;20.10;99.90;;;;;;5037816;28;20029;-78
2022/07/01 01:17:56;;;;;;;11.68;5.85;;;20.10;99.90;;;;;;5041776;28;20034;-79
2022/07/01 01:20:22;;;;;;;10.93;5.90;;;20.00;99.90;;;;;;5036870;28;20029;-78
2022/07/01 01:22:49;;;;;;;11.02;6.30;;;20.00;99.90;;;;;;5033924;28;20501;-80
2022/07/01 01:25:18;;;;;;;11.25;5.72;;;20.00;99.90;;;;;;5036822;28;20405;-80
2022/07/01 01:27:44;;;;;;;10.05;6.15;;;20.00;99.90;;;;;;5021842;28;20029;-79
2022/07/01 01:30:11;;;;;;;9.48;5.97;;;19.90;99.90;;;;;;5037620;28;20485;-80
2022/07/01 01:32:38;;;;;;;8.32;5.50;;;19.90;99.90;;;;;;5039379;28;20033;-79
2022/07/01 01:35:04;;;;;;;9.75;6.53;;;19.90;99.90;;;;;;5042671;28;20037;-77
2022/07/01 01:37:30;;;;;;;11.40;5.95;;;19.80;99.90;;;;;;5043619;28;20029;-78
2022/07/01 01:39:57;;;;;;;11.98;6.03;;;19.80;99.90;;;;;;5035674;28;20091;-81
2022/07/01 01:42:23;;;;;;;10.90;6.68;;;19.90;99.90;;;;;;5033505;28;20114;-80
2022/07/01 01:44:50;;;;;;;10.93;6.80;;;19.80;99.90;;;;;;5036301;28;20135;-77
2022/07/01 01:47:16;;;;;;;13.48;6.88;;;19.80;99.90;;;;;;5046701;28;20044;-79
2022/07/01 01:49:42;;;;;;;10.30;6.65;;;19.70;99.90;;;;;;5019369;28;20401;-80
2022/07/01 01:52:07;;;;;;;11.32;6.93;;;19.80;99.90;;;;;;5020763;28;20507;-79
2022/07/01 01:54:36;;;;;;;8.98;6.38;;;19.80;99.90;;;;;;5038560;28;20068;-79
2022/07/01 01:57:03;;;;;;;8.95;6.43;;;19.80;99.90;;;;;;5034940;28;20038;-78
2022/07/01 01:59:29;;;;;;;12.93;6.95;;;19.90;99.90;;;;;;5037427;28;20079;-78
2022/07/01 02:01:54;;;;;;;6.90;5.82;;;19.80;99.90;;;;;;5019040;28;20026;-81
2022/07/01 02:04:20;;;;;;;11.30;6.80;;;19.80;99.90;;;;;;5035123;28;20033;-77
2022/07/01 02:06:46;;;;;;;12.38;6.88;;;19.90;99.90;;;;;;5036358;28;20032;-78
2022/07/01 02:09:13;;;;;;;11.75;5.97;;;19.80;99.90;;;;;;5021170;28;20469;-81
2022/07/01 02:11:38;;;;;;;9.52;6.50;;;19.90;99.90;;;;;;5037580;28;20032;-79
2022/07/01 02:14:04;;;;;;;10.38;6.35;;;19.90;99.90;;;;;;5033277;28;20029;-77
2022/07/01 02:16:30;;;;;;;11.98;6.20;;;19.90;99.90;;;;;;5040870;28;20044;-78
2022/07/01 02:18:56;;;;;;;9.35;6.85;;;19.90;99.90;;;;;;5035301;28;20087;-79
2022/07/01 02:21:23;;;;;;;9.10;5.93;;;20.00;99.90;;;;;;5033025;28;20033;-80
2022/07/01 02:23:52;;;;;;;8.80;6.28;;;20.00;99.90;;;;;;5027197;28;20026;-78
2022/07/01 02:26:19;;;;;;;9.00;5.90;;;20.00;99.90;;;;;;5018344;28;20071;-78
2022/07/01 02:28:44;;;;;;;9.32;5.93;;;20.00;99.90;;;;;;5019166;28;20087;-79
2022/07/01 02:31:10;;;;;;;10.50;6.57;;;20.00;99.90;;;;;;5018672;28;20033;-79
2022/07/01 02:33:36;;;;;;;14.30;5.90;;;20.00;99.90;;;;;;5017586;28;20040;-77
2022/07/01 02:36:02;;;;;;;9.10;5.60;;;20.00;99.90;;;;;;5033000;28;20052;-77
2022/07/01 02:38:28;;;;;;;9.98;6.07;;;20.10;99.90;;;;;;5041003;28;20021;-77
2022/07/01 02:40:53;;;;;;;7.68;5.40;;;20.10;99.90;;;;;;5031378;28;20068;-80
2022/07/01 02:43:19;;;;;;;8.80;5.38;;;20.20;99.90;;;;;;5032199;28;20397;-78
2022/07/01 02:45:44;;;;;;;9.05;6.00;;;20.10;99.90;;;;;;5034594;28;20030;-79
2022/07/01 02:48:10;;;;;;;7.28;5.50;;;20.20;99.90;;;;;;5017726;28;20136;-79
2022/07/01 02:50:37;;;;;;;10.65;5.90;;;20.20;99.90;;;;;;5031169;28;20379;-79
2022/07/01 02:53:03;;;;;;;13.00;6.63;;;20.20;99.90;;;;;;5037950;28;20039;-78
2022/07/01 02:55:29;;;;;;;9.05;5.75;;;20.20;99.90;;;;;;5016623;28;20030;-76
2022/07/01 02:57:55;;;;;;;10.10;6.10;;;20.20;99.90;;;;;;5013990;28;20030;-84
2022/07/01 03:00:23;;;;;;;8.10;5.45;;;20.30;99.90;;;;;;5035529;28;20031;-77
2022/07/01 03:02:49;;;;;;;12.23;6.05;;;20.30;99.90;;;;;;5038663;28;20045;-77
2022/07/01 03:05:15;;;;;;;10.15;5.85;;;20.30;99.90;;;;;;5036702;28;20588;-79
2022/07/01 03:07:41;;;;;;;9.82;6.63;;;20.30;99.90;;;;;;5018318;28;20501;-77
2022/07/01 03:10:09;;;;;;;9.75;6.63;;;20.30;99.90;;;;;;5037060;28;20481;-76
2022/07/01 03:12:35;;;;;;;9.60;6.32;;;20.40;99.90;;;;;;5032325;28;20037;-77
2022/07/01 03:15:10;;;;;;;7.53;5.10;;;20.40;99.90;;;;;;5019297;28;20029;-77
2022/07/01 03:17:39;;;;;;;8.35;5.32;;;20.40;99.90;;;;;;5033903;28;20516;-79
2022/07/01 03:20:07;;;;;;;7.65;5.35;;;20.40;99.90;;;;;;5034599;28;20395;-77
2022/07/01 03:22:35;;;;;;;6.70;4.93;;;20.40;99.90;;;;;;5035677;28;20519;-77
2022/07/01 03:25:03;;;;;;;6.05;4.43;;;20.30;99.90;;;;;;5037554;28;20025;-77
2022/07/01 03:27:29;;;;;;;8.50;5.15;;;20.40;99.90;;;;;;5016656;28;20029;-80
2022/07/01 03:29:55;;;;;;;10.05;5.60;;;20.40;99.90;;;;;;5038114;28;20028;-77
2022/07/01 03:32:21;;;;;;;10.15;7.70;;;20.30;99.90;;;;;;5018164;28;20552;-77
2022/07/01 03:34:50;;;;;;;12.07;9.32;;;20.40;99.90;;;;;;5018643;28;20033;-77
2022/07/01 03:37:17;;;;;;;12.25;10.23;;;20.30;99.90;;;;;;5036128;28;20032;-78
2022/07/01 03:39:43;;;;;;;12.25;10.63;;;20.30;99.90;;;;;;5036477;28;20607;-77
2022/07/01 03:42:10;;;;;;;14.93;10.60;;;20.30;99.90;;;;;;5033863;28;20045;-78
2022/07/01 03:44:37;;;;;;;11.90;9.48;;;20.30;99.90;;;;;;5031783;28;20111;-77
2022/07/01 03:47:05;;;;;;;12.20;8.27;;;20.20;99.90;;;;;;5017186;28;20033;-82
2022/07/01 03:49:31;;;;;;;12.80;9.82;;;20.20;99.90;;;;;;5028850;28;20029;-78
2022/07/01 03:51:57;;;;;;;10.88;8.55;;;20.20;99.90;;;;;;5036663;28;20029;-77
2022/07/01 03:54:38;;;;;;;10.60;8.40;;;20.20;99.90;;;;;;5035674;28;20101;-79
2022/07/01 03:57:09;;;;;;;12.30;7.72;;;20.20;99.90;;;;;;5032399;28;20033;-78
2022/07/01 03:59:37;;;;;;;11.43;7.95;;;20.20;99.90;;;;;;5016076;28;20596;-79
2022/07/01 04:02:03;;;;;;;10.93;7.43;;;20.10;99.90;;;;;;5036180;28;20021;-79
2022/07/01 04:04:29;;;;;;;12.55;8.15;;;20.10;99.90;;;;;;5031290;28;20828;-78
2022/07/01 04:06:57;;;;;;;10.15;7.93;;;20.10;99.90;;;;;;5037409;28;20029;-78
2022/07/01 04:09:24;;;;;;;9.13;7.95;;;20.10;99.90;;;;;;5036895;28;20080;-78
2022/07/01 04:11:51;;;;;;;9.73;7.78;;;20.00;99.90;;;;;;5033194;28;20112;-79
2022/07/01 04:14:16;;;;;;;9.70;8.10;;;20.00;99.90;;;;;;5032404;28;20029;-78
2022/07/01 04:16:45;;;;;;;9.80;7.90;;;20.00;99.90;;;;;;5034162;28;20558;-77
2022/07/01 04:19:11;;;;;;;12.10;8.35;;;20.00;99.90;;;;;;5040200;28;20105;-78
2022/07/01 04:24:32;;;;;;;7.53;6.50;;;20.00;99.90;;;;;;5034354;28;20032;-83
2022/07/01 04:26:59;;;;;;;8.70;6.35;;;20.00;99.90;;;;;;5034262;28;20048;-79
2022/07/01 04:29:24;;;;;;;7.25;6.13;;;20.00;99.90;;;;;;5031536;28;20016;-78
2022/07/01 04:31:50;;;;;;;9.23;6.47;;;20.00;99.90;;;;;;5034001;28;20036;-77
2022/07/01 04:34:16;;;;;;;7.43;6.40;;;20.00;99.90;;;;;;5037360;28;20021;-80
2022/07/01 04:36:42;;;;;;;4.55;4.00;;;19.90;99.90;;;;;;5035801;28;20507;-80
2022/07/01 04:39:07;;;;;;;8.68;5.93;;;20.30;99.90;;;;;;5037171;28;20024;-78
2022/07/01 04:44:18;;;;;;;7.90;6.35;;;20.10;99.90;;;;;;5036552;28;20033;-82
2022/07/01 04:46:44;;;;;;;6.85;5.85;;;20.00;99.90;;;;;;5035087;28;20466;-77
2022/07/01 04:49:10;;;;;;;8.77;7.05;;;19.90;99.90;;;;;;5017172;28;20112;-77
2022/07/01 04:51:37;;;;;;;7.78;6.88;;;19.90;99.90;;;;;;5030764;28;20036;-80
2022/07/01 04:54:05;;;;;;;12.77;7.63;;;19.90;99.90;;;;;;5033285;28;20111;-77
2022/07/01 04:56:33;;;;;;;8.68;6.80;;;19.80;99.90;;;;;;5035422;28;20123;-80
2022/07/01 04:59:00;;;;;;;13.43;6.57;;;19.70;99.90;;;;;;5016026;28;20960;-76
2022/07/01 05:01:25;;;;;;;12.32;6.88;;;19.80;99.90;;;;;;5025406;28;20033;-77
2022/07/01 05:03:51;;;;;;;11.77;6.80;;;19.70;99.90;;;;;;5041331;28;20461;-76
2022/07/01 05:06:17;;;;;;;13.68;7.13;;;19.70;99.90;;;;;;5029898;28;20030;-78
2022/07/01 05:08:43;;;;;;;15.43;7.50;;;19.60;99.90;;;;;;5028007;28;20060;-76
2022/07/01 05:11:08;;;;;;;16.85;6.93;;;19.60;99.90;;;;;;5027974;28;20033;-76
2022/07/01 05:13:34;;;;;;;15.70;7.35;;;19.50;99.90;;;;;;5032012;28;20064;-77
2022/07/01 05:16:01;;;;;;;12.70;6.70;;;19.50;99.90;;;;;;5030714;28;20493;-75
2022/07/01 05:23:56;;;;;;;10.43;5.47;;;19.40;99.90;;;;;;5039813;28;20035;-78
2022/07/01 05:26:24;;;;;;;8.30;4.32;;;19.30;99.90;;;;;;5035677;28;20025;-80
2022/07/01 05:28:50;;;;;;;9.95;4.88;;;19.20;99.90;;;;;;5031551;28;20457;-76
2022/07/01 05:31:16;;;;;;;7.82;4.50;;;19.20;99.90;;;;;;5042518;28;20053;-78
2022/07/01 05:33:42;;;;;;;12.18;4.68;;;19.00;99.90;;;;;;5035643;28;20032;-80
2022/07/01 05:36:09;;;;;;;13.00;4.13;;;18.90;99.90;;;;;;5017366;28;20025;-77
2022/07/01 05:38:34;;;;;;;15.18;5.55;;;18.80;99.90;;;;;;5025145;28;20033;-78
2022/07/01 05:41:05;;;;;;;7.40;4.65;;;18.70;99.90;;;;;;5039345;28;20085;-78
2022/07/01 05:43:31;;;;;;;12.00;4.88;;;18.60;99.90;;;;;;5033959;28;20029;-77
2022/07/01 05:45:57;;;;;;;10.20;4.63;;;18.50;99.90;;;;;;5035203;28;20040;-76
2022/07/01 05:48:23;;;;;;;7.57;3.63;;;18.50;99.90;;;;;;5037899;28;20028;-76
2022/07/01 05:50:52;;;;;;;8.52;3.13;;;18.40;99.90;;;;;;5037137;28;20040;-75
2022/07/01 05:53:22;;;;;;;8.60;3.67;;;18.30;99.90;;;;;;5018861;28;20029;-76
2022/07/01 05:55:47;;;;;;;5.72;3.00;;;18.10;99.90;;;;;;5031118;28;20108;-76
2022/07/01 05:58:14;;;;;;;5.63;2.70;;;18.10;99.90;;;;;;5029513;28;20109;-76
2022/07/01 06:00:43;;;;;;;8.20;3.10;;;18.10;99.90;;;;;;5016049;28;20720;-76
2022/07/01 06:03:13;;;;;;;7.70;2.95;;;18.10;99.90;;;;;;5033451;28;20020;-75
2022/07/01 06:05:41;;;;;;;9.27;2.53;;;18.10;99.90;;;;;;5034563;28;20022;-77
2022/07/01 06:08:07;;;;;;;8.40;2.25;;;18.10;99.90;;;;;;5036744;28;20036;-77
2022/07/01 06:10:33;;;;;;;3.60;1.60;;;18.00;99.90;;;;;;5027898;28;20434;-76
2022/07/01 06:12:59;;;;;;;4.72;1.77;;;18.00;99.90;;;;;;5037805;28;20096;-76
2022/07/01 06:15:25;;;;;;;7.82;2.28;;;18.00;99.90;;;;;;5042029;28;20029;-77
2022/07/01 06:17:51;;;;;;;6.80;1.50;;;18.10;99.90;;;;;;5036877;28;20029;-77
2022/07/01 06:20:19;;;;;;;5.00;1.95;;;18.10;99.90;;;;;;5049056;28;20068;-78
2022/07/01 06:22:44;;;;;;;6.35;1.95;;;18.00;99.90;;;;;;5038477;28;20118;-77
2022/07/01 06:25:11;;;;;;;4.38;1.98;;;18.20;99.90;;;;;;5030059;28;20098;-77
2022/07/01 06:27:41;;;;;;;7.10;2.13;;;18.10;99.90;;;;;;5035091;28;20091;-78
2022/07/01 06:30:07;;;;;;;5.25;1.80;;;18.00;99.90;;;;;;5036744;28;20033;-77
2022/07/01 06:32:33;;;;;;;6.60;2.30;;;17.90;99.90;;;;;;5034250;28;20079;-77
2022/07/01 06:34:58;;;;;;;5.50;2.15;;;17.90;99.90;;;;;;5025967;28;20508;-75
2022/07/01 06:37:24;;;;;;;8.55;2.90;;;17.80;99.90;;;;;;5026823;28;20033;-75
2022/07/01 06:39:50;;;;;;;5.63;2.25;;;17.80;99.90;;;;;;5045485;28;20032;-75
2022/07/01 06:42:16;;;;;;;5.15;2.53;;;17.80;99.90;;;;;;5031843;28;20029;-75
2022/07/01 06:44:41;;;;;;;5.90;2.75;;;17.70;99.90;;;;;;5026054;28;20025;-75
2022/07/01 06:47:07;;;;;;;6.00;2.80;;;17.70;99.90;;;;;;5034351;28;21683;-75
2022/07/01 06:49:33;;;;;;;6.22;3.20;;;17.60;99.90;;;;;;5031948;28;20025;-74
2022/07/01 06:51:58;;;;;;;7.85;3.38;;;17.50;99.90;;;;;;5038308;28;20112;-75
2022/07/01 06:54:24;;;;;;;6.55;3.22;;;17.50;99.90;;;;;;5040177;28;20037;-75
2022/07/01 06:56:50;;;;;;;6.82;3.00;;;17.50;99.90;;;;;;5015372;28;20029;-75
2022/07/01 06:59:15;;;;;;;5.22;3.10;;;17.50;99.90;;;;;;5030209;28;20047;-75
2022/07/01 07:01:42;;;;;;;6.47;2.72;;;17.50;99.90;;;;;;5030610;28;20025;-75
2022/07/01 07:04:07;;;;;;;5.10;2.70;;;17.50;99.90;;;;;;5036119;28;20056;-74
2022/07/01 07:06:33;;;;;;;5.53;3.22;;;17.50;99.90;;;;;;5029621;28;20065;-74
2022/07/01 07:08:59;;;;;;;6.35;3.20;;;17.40;99.90;;;;;;5033348;28;20512;-75
2022/07/01 07:11:26;;;;;;;7.97;3.65;;;17.40;99.90;;;;;;5025797;28;20025;-75
2022/07/01 07:13:52;;;;;;;5.88;3.35;;;17.40;99.90;;;;;;5028141;28;20061;-75
2022/07/01 07:16:20;;;;;;;7.40;3.35;;;17.40;99.90;;;;;;5026135;28;20132;-76
2022/07/01 07:18:50;;;;;;;7.85;3.25;;;17.40;99.90;;;;;;5035575;28;20061;-75
2022/07/01 07:21:16;;;;;;;9.02;3.15;;;17.40;99.90;;;;;;5037631;28;20103;-75
2022/07/01 07:23:45;;;;;;;6.50;2.60;;;17.40;99.90;;;;;;5036951;28;20096;-76
2022/07/01 07:26:11;;;;;;;4.88;2.50;;;17.30;99.90;;;;;;5038946;28;20025;-76
2022/07/01 07:28:37;;;;;;;4.88;2.60;;;17.30;99.90;;;;;;5017251;28;20486;-76
2022/07/01 07:31:03;;;;;;;4.50;2.13;;;17.30;99.90;;;;;;5035959;28;20039;-76
2022/07/01 07:33:28;;;;;;;5.90;2.42;;;17.30;99.90;;;;;;5012464;28;20040;-75
2022/07/01 07:35:54;;;;;;;4.65;2.00;;;17.30;99.90;;;;;;5030494;28;20046;-77
2022/07/01 07:38:21;;;;;;;4.15;2.13;;;17.30;99.90;;;;;;5032235;28;20026;-76
2022/07/01 07:40:47;;;;;;;5.50;2.20;;;17.30;99.90;;;;;;5028782;28;20021;-76
2022/07/01 07:43:13;;;;;;;4.15;2.38;;;17.20;99.90;;;;;;5027844;28;20030;-76
2022/07/01 07:45:39;;;;;;;2.30;1.63;;;17.30;99.90;;;;;;5021890;28;20025;-76
2022/07/01 07:48:06;;;;;;;4.30;2.15;;;17.20;99.90;;;;;;5025176;28;20051;-76
2022/07/01 07:50:32;;;;;;;4.43;2.05;;;17.20;99.90;;;;;;5027251;28;20064;-76
2022/07/01 07:52:58;;;;;;;3.20;1.90;;;17.20;99.90;;;;;;5034151;28;20043;-76
2022/07/01 07:55:24;;;;;;;4.05;1.98;;;17.30;99.90;;;;;;5023988;28;20033;-76
2022/07/01 07:57:50;;;;;;;4.10;1.63;;;17.30;99.90;;;;;;5027030;28;20681;-74
2022/07/01 08:00:16;;;;;;;5.00;2.03;;;17.90;99.90;;;;;;5038043;28;20040;-75
2022/07/01 08:02:42;;;;;;;3.42;1.50;;;18.20;99.90;;;;;;5030604;28;20030;-75
2022/07/01 08:05:10;;;;;;;5.18;1.40;;;18.60;99.90;;;;;;5037699;28;20151;-76
2022/07/01 08:07:41;;;;;;;3.70;1.60;;;18.70;99.90;;;;;;5032792;28;20029;-75
2022/07/01 08:10:09;;;;;;;3.50;1.42;;;18.80;99.90;;;;;;5035301;28;20029;-75
2022/07/01 08:12:35;;;;;;;4.63;2.15;;;19.00;99.90;;;;;;5033728;28;20116;-75
2022/07/01 08:15:01;;;;;;;4.13;2.30;;;19.00;99.90;;;;;;5036488;28;20158;-75
2022/07/01 08:17:27;;;;;;;4.50;2.00;;;19.00;99.90;;;;;;5034968;28;20025;-76
2022/07/01 08:19:52;;;;;;;2.35;1.60;;;19.00;99.90;;;;;;5034315;28;20052;-75
2022/07/01 08:22:19;;;;;;;3.50;1.27;;;19.00;99.90;;;;;;5035636;28;20055;-76
2022/07/01 08:24:45;;;;;;;2.80;1.58;;;19.10;99.90;;;;;;5033797;28;20635;-75
2022/07/01 08:27:12;;;;;;;4.82;1.58;;;19.10;99.90;;;;;;5034019;28;20096;-75
2022/07/01 08:29:38;;;;;;;3.03;1.52;;;19.30;99.90;;;;;;5033513;28;20040;-75
2022/07/01 08:32:04;;;;;;;4.13;1.85;;;19.30;99.90;;;;;;5031540;28;20520;-76
2022/07/01 08:34:30;;;;;;;5.07;1.80;;;19.50;99.90;;;;;;5035565;28;20056;-75
2022/07/01 08:36:56;;;;;;;6.47;2.45;;;19.40;99.90;;;;;;5032824;28;20030;-75
2022/07/01 08:39:21;;;;;;;5.85;2.83;;;19.40;99.90;;;;;;5022826;28;20117;-75
2022/07/01 08:41:48;;;;;;;5.65;1.95;;;19.30;99.90;;;;;;5034723;28;20405;-75
2022/07/01 08:44:13;;;;;;;5.28;2.03;;;18.80;99.90;;;;;;5036340;28;20390;-75
2022/07/01 08:46:40;;;;;;;7.20;2.58;;;18.50;99.90;;;;;;5037523;28;20040;-76
2022/07/01 08:49:06;;;;;;;6.80;2.38;;;18.40;99.90;;;;;;5037270;28;20504;-75
2022/07/01 08:51:31;;;;;;;4.15;2.15;;;18.20;99.90;;;;;;5036320;28;21056;-75
2022/07/01 08:53:57;;;;;;;6.60;3.00;;;18.20;99.90;;;;;;5019907;28;20037;-75
2022/07/01 08:56:41;;;;;;;6.32;2.42;;;18.10;99.90;;;;;;5037179;28;20040;-75
2022/07/01 08:59:12;;;;;;;5.82;2.88;;;18.00;99.90;;;;;;5032049;28;20045;-74
2022/07/01 09:01:38;;;;;;;9.35;3.03;;;18.10;99.90;;;;;;5038852;28;20063;-76
2022/07/01 09:04:18;;;;;;;7.40;3.10;;;18.00;99.90;;;;;;5038018;28;20068;-75
2022/07/01 09:06:45;;;;;;;8.38;3.60;;;18.00;99.90;;;;;;5036903;28;20038;-75
2022/07/01 09:09:14;;;;;;;6.10;2.95;;;18.00;99.90;;;;;;5039945;28;20099;-75
2022/07/01 09:11:45;;;;;;;3.75;2.60;;;18.00;99.90;;;;;;5039564;28;20063;-75
2022/07/01 09:14:15;;;;;;;7.07;2.55;;;18.00;99.90;;;;;;5038951;28;20515;-75
2022/07/01 09:16:42;;;;;;;5.63;2.55;;;18.00;99.90;;;;;;5037864;28;20044;-75
2022/07/01 09:19:08;;;;;;;4.90;3.10;;;18.00;99.90;;;;;;5037699;28;20029;-74
2022/07/01 09:21:34;;;;;;;7.45;2.53;;;18.00;99.90;;;;;;5038602;28;20037;-75
2022/07/01 09:24:05;;;;;;;6.82;2.60;;;17.90;99.90;;;;;;5034384;28;20025;-74
2022/07/01 09:26:32;;;;;;;2.90;2.58;;;17.90;99.90;;;;;;5034532;28;20033;-75
2022/07/01 09:28:59;;;;;;;4.13;2.60;;;18.00;99.90;;;;;;5042433;28;20056;-75
2022/07/01 09:31:35;;;;;;;2.88;2.47;;;18.00;99.90;;;;;;5037223;28;20072;-75
2022/07/01 09:34:08;;;;;;;3.85;2.70;;;17.90;99.90;;;;;;5036646;28;20665;-75
2022/07/01 09:36:41;;;;;;;11.77;3.20;;;17.90;99.90;;;;;;5036417;28;20035;-75
2022/07/01 09:39:07;;;;;;;5.10;3.05;;;17.90;99.90;;;;;;5038670;28;20215;-75
2022/07/01 09:41:39;;;;;;;4.72;2.88;;;17.90;99.90;;;;;;5034948;28;20040;-75
2022/07/01 09:44:07;;;;;;;4.82;3.10;;;17.90;99.90;;;;;;5038212;28;20076;-74
2022/07/01 09:46:32;;;;;;;3.88;2.83;;;18.00;99.90;;;;;;5041722;28;20144;-75
2022/07/01 09:48:59;;;;;;;3.80;2.67;;;18.00;99.90;;;;;;5034895;28;20103;-75
2022/07/01 09:51:24;;;;;;;6.00;2.90;;;18.00;99.90;;;;;;5039312;28;20355;-74
2022/07/01 09:53:50;;;;;;;5.05;2.80;;;18.00;99.90;;;;;;5035294;28;20102;-75
2022/07/01 09:56:16;;;;;;;6.50;3.10;;;18.10;99.90;;;;;;5035836;28;20091;-75
2022/07/01 09:58:42;;;;;;;8.45;3.38;;;18.10;99.90;;;;;;5037173;28;20025;-74
2022/07/01 10:01:09;;;;;;;4.28;2.75;;;18.10;99.90;;;;;;5038380;28;20490;-74
2022/07/01 10:03:37;;;;;;;4.30;2.70;;;18.20;99.90;;;;;;5038943;28;20087;-74
2022/07/01 10:06:24;;;;;;;6.85;3.00;;;18.20;99.90;;;;;;5039282;28;20121;-75
2022/07/01 10:09:07;;;;;;;6.20;2.80;;;18.10;99.90;;;;;;5040997;28;20607;-74
2022/07/01 10:11:51;;;;;;;4.68;2.60;;;18.10;99.90;;;;;;5040764;28;20071;-74
2022/07/01 10:14:19;;;;;;;2.92;2.47;;;18.10;99.90;;;;;;5041609;28;20036;-74
2022/07/01 10:16:51;;;;;;;4.47;2.78;;;18.00;99.90;;;;;;5041963;28;20060;-74
2022/07/01 10:19:28;;;;;;;4.45;2.95;;;18.00;99.90;;;;;;5035809;28;20497;-75
2022/07/01 10:21:56;;;;;;;3.40;2.65;;;18.00;99.90;;;;;;5037370;28;20103;-74
2022/07/01 10:24:24;;;;;;;4.50;2.80;;;17.90;99.90;;;;;;5038263;28;20071;-75
2022/07/01 10:26:58;;;;;;;4.55;2.58;;;17.90;99.90;;;;;;5035392;28;20025;-74
2022/07/01 10:29:35;;;;;;;2.95;2.65;;;17.80;99.90;;;;;;5035724;28;20029;-74
2022/07/01 10:32:11;;;;;;;4.25;2.58;;;17.80;99.90;;;;;;5037100;28;20030;-74
2022/07/01 10:34:41;;;;;;;4.25;2.83;;;17.80;99.90;;;;;;5037284;28;20115;-75
2022/07/01 10:37:11;;;;;;;5.28;3.35;;;17.80;99.90;;;;;;5034635;28;20086;-74
2022/07/01 10:39:57;;;;;;;7.25;3.70;;;17.80;99.90;;;;;;5039665;28;20064;-74
2022/07/01 10:42:29;;;;;;;4.72;3.50;;;17.80;99.90;;;;;;5037271;28;20038;-74
2022/07/01 10:45:08;;;;;;;5.25;3.20;;;17.80;99.90;;;;;;5021559;28;20189;-74
2022/07/01 10:47:34;;;;;;;5.47;3.55;;;17.80;99.90;;;;;;5037054;28;20025;-74
2022/07/01 10:50:11;;;;;;;8.02;4.00;;;17.80;99.90;;;;;;5033457;28;20082;-74
2022/07/01 10:52:38;;;;;;;6.38;3.70;;;17.80;99.90;;;;;;5037204;28;20037;-74
2022/07/01 10:55:06;;;;;;;6.22;3.95;;;17.80;99.90;;;;;;5036284;28;20038;-76
2022/07/01 10:57:38;;;;;;;7.95;3.78;;;17.80;99.90;;;;;;5014892;28;20045;-74
2022/07/01 11:00:04;;;;;;;6.25;3.15;;;17.70;99.90;;;;;;5036038;28;20026;-74
2022/07/01 11:02:32;;;;;;;4.40;3.50;;;17.70;99.90;;;;;;5034955;28;20497;-74
2022/07/01 11:05:10;;;;;;;11.48;4.05;;;17.80;99.90;;;;;;5034722;28;20032;-74
2022/07/01 11:07:37;;;;;;;6.57;4.07;;;17.80;99.90;;;;;;5033596;28;20037;-75
2022/07/01 11:10:06;;;;;;;7.80;4.50;;;17.80;99.90;;;;;;5028754;28;20033;-75
2022/07/01 11:12:32;;;;;;;7.20;4.05;;;17.80;99.90;;;;;;5029136;28;20064;-75
2022/07/01 11:15:01;;;;;;;4.75;4.20;;;17.90;99.90;;;;;;5029562;28;20064;-75
2022/07/01 11:17:27;;;;;;;6.55;4.63;;;17.80;99.90;;;;;;5029683;28;20155;-75
2022/07/01 11:20:01;;;;;;;9.15;4.70;;;17.80;99.90;;;;;;5031649;28;20025;-75
2022/07/01 11:22:29;;;;;;;5.90;4.80;;;17.90;99.90;;;;;;5033779;28;20025;-77
2022/07/01 11:25:01;;;;;;;7.25;4.60;;;17.80;99.90;;;;;;5015004;28;21257;-77
2022/07/01 11:27:28;;;;;;;7.35;4.95;;;17.80;99.90;;;;;;5031559;28;20078;-78
2022/07/01 11:29:55;;;;;;;5.72;4.32;;;17.80;99.90;;;;;;5030980;28;20043;-76
2022/07/01 11:32:30;;;;;;;5.47;4.32;;;17.90;99.90;;;;;;5029138;28;20028;-74
2022/07/01 11:34:56;;;;;;;11.10;7.68;;;18.00;99.90;;;;;;5031035;28;20128;-75
2022/07/01 11:40:17;;;;;;;10.30;5.20;;;18.00;99.90;;;;;;5029632;28;20025;-76
2022/07/01 11:42:45;;;;;;;12.18;5.45;;;18.00;99.90;;;;;;5028944;28;20037;-75
2022/07/01 11:45:25;;;;;;;11.35;6.00;;;18.00;99.90;;;;;;5030508;28;20506;-74
2022/07/01 11:47:51;;;;;;;7.75;5.45;;;18.00;99.90;;;;;;5026235;28;20040;-75
2022/07/01 11:50:17;;;;;;;6.90;4.57;;;18.00;99.90;;;;;;5027252;28;20115;-74
2022/07/01 11:52:43;;;;;;;8.02;5.32;;;18.00;99.90;;;;;;5032188;28;20045;-75
2022/07/01 11:55:09;;;;;;;9.13;6.03;;;18.10;99.90;;;;;;5026834;28;20036;-77
2022/07/01 11:57:35;;;;;;;8.10;5.43;;;18.00;99.90;;;;;;5033603;28;20039;-76
2022/07/01 12:00:10;;;;;;;7.45;4.90;;;18.00;99.90;;;;;;5013941;28;20708;-76
2022/07/01 12:02:36;;;;;;;6.72;5.20;;;18.00;99.90;;;;;;5030627;28;20036;-75
2022/07/01 12:05:02;;;;;;;8.50;5.65;;;18.00;99.90;;;;;;5034887;28;20026;-75
2022/07/01 12:07:29;;;;;;;11.52;5.85;;;18.00;99.90;;;;;;5033299;28;20119;-74
2022/07/01 12:09:54;;;;;;;7.50;5.88;;;18.00;99.90;;;;;;5029579;28;20044;-77
2022/07/01 12:12:25;;;;;;;9.27;6.22;;;18.00;99.90;;;;;;5028540;28;20035;-75
2022/07/01 12:14:54;;;;;;;10.15;5.60;;;18.00;99.90;;;;;;5027851;28;20110;-76
2022/07/01 12:17:20;;;;;;;6.82;4.82;;;18.10;99.90;;;;;;5031193;28;20041;-76
2022/07/01 12:19:48;;;;;;;7.40;5.43;;;18.10;99.90;;;;;;5029337;28;20242;-76
2022/07/01 12:22:18;;;;;;;5.97;5.07;;;18.10;99.90;;;;;;5031255;28;20089;-76
2022/07/01 12:24:45;;;;;;;7.80;5.57;;;18.10;99.90;;;;;;5027940;28;20079;-74
2022/07/01 12:27:11;;;;;;;8.77;6.35;;;18.20;99.90;;;;;;5029993;28;20026;-75
2022/07/01 12:29:42;;;;;;;8.38;5.75;;;18.20;99.90;;;;;;5029091;28;20116;-75
2022/07/01 12:32:11;;;;;;;7.03;5.82;;;18.20;99.90;;;;;;5036026;28;20112;-75
2022/07/01 12:34:46;;;;;;;7.38;5.38;;;18.20;99.90;;;;;;5018177;28;20021;-75
2022/07/01 12:37:24;;;;;;;8.52;5.10;;;18.40;99.90;;;;;;5035632;28;20485;-76
2022/07/01 12:39:52;;;;;;;8.88;5.18;;;18.40;99.90;;;;;;5034300;28;20037;-75
2022/07/01 12:42:27;;;;;;;7.80;4.60;;;18.60;99.90;;;;;;5034297;28;20037;-75
2022/07/01 12:44:58;;;;;;;10.45;4.95;;;18.60;99.90;;;;;;5031445;28;20017;-75
2022/07/01 12:47:29;;;;;;;9.65;4.18;;;18.80;99.90;;;;;;5036764;28;20028;-75
2022/07/01 12:50:14;;;;;;;6.60;4.47;;;19.10;99.90;;;;;;5030818;28;20048;-76
2022/07/01 12:52:42;;;;;;;375.33;271.83;;;19.50;99.90;;;;;;5034246;28;20037;-75
2022/07/01 12:55:20;;;;;;;19.33;14.32;;;19.30;99.90;;;;;;5034234;28;20443;-76
2022/07/01 12:57:51;;;;;;;18.92;13.38;;;19.30;99.90;;;;;;5029735;28;20047;-75
2022/07/01 13:00:18;;;;;;;11.40;6.15;;;19.40;99.90;;;;;;5031123;28;20021;-76